sensor_id;sensor_type;location;lat;lon;timestamp;pressure;altitude;pressure_sealevel;temperature
39959;BMP280;25639;53.634;9.880;2023-04-01T00:01:27;151186.44;;;-4.79
39959;BMP280;25639;53.634;9.880;2023-04-01T00:03:52;151190.19;;;-4.78
39959;BMP280;25639;53.634;9.880;2023-04-01T00:06:19;151180.13;;;-4.82
39959;BMP280;25639;53.634;9.880;2023-04-01T00:08:44;151175.06;;;-4.84
39959;BMP280;25639;53.634;9.880;2023-04-01T00:11:09;151196.53;;;-4.75
39959;BMP280;25639;53.634;9.880;2023-04-01T00:13:35;151192.72;;;-4.76
39959;BMP280;25639;53.634;9.880;2023-04-01T00:16:00;151153.63;;;-4.92
39959;BMP280;25639;53.634;9.880;2023-04-01T00:18:26;151182.66;;;-4.81
39959;BMP280;25639;53.634;9.880;2023-04-01T00:20:52;151163.72;;;-4.88
39959;BMP280;25639;53.634;9.880;2023-04-01T00:23:19;151142.31;;;-4.97
39959;BMP280;25639;53.634;9.880;2023-04-01T00:25:45;151158.66;;;-4.90
39959;BMP280;25639;53.634;9.880;2023-04-01T00:28:13;151158.66;;;-4.90
39959;BMP280;25639;53.634;9.880;2023-04-01T00:30:38;151146.06;;;-4.95
39959;BMP280;25639;53.634;9.880;2023-04-01T00:33:03;151153.63;;;-4.92
39959;BMP280;25639;53.634;9.880;2023-04-01T00:35:30;151152.38;;;-4.93
39959;BMP280;25639;53.634;9.880;2023-04-01T00:37:55;151138.53;;;-4.99
39959;BMP280;25639;53.634;9.880;2023-04-01T00:40:31;151152.38;;;-4.93
39959;BMP280;25639;53.634;9.880;2023-04-01T00:42:57;151175.06;;;-4.84
39959;BMP280;25639;53.634;9.880;2023-04-01T00:48:00;151181.38;;;-4.81
39959;BMP280;25639;53.634;9.880;2023-04-01T00:50:26;151132.19;;;-5.01
39959;BMP280;25639;53.634;9.880;2023-04-01T00:52:53;151130.94;;;-5.02
39959;BMP280;25639;53.634;9.880;2023-04-01T00:55:19;151128.41;;;-5.03
39959;BMP280;25639;53.634;9.880;2023-04-01T00:57:45;151173.84;;;-4.84
39959;BMP280;25639;53.634;9.880;2023-04-01T01:00:14;151146.06;;;-4.95
39959;BMP280;25639;53.634;9.880;2023-04-01T01:02:41;151142.31;;;-4.97
39959;BMP280;25639;53.634;9.880;2023-04-01T01:05:08;151105.72;;;-5.12
39959;BMP280;25639;53.634;9.880;2023-04-01T01:10:23;151115.84;;;-5.08
39959;BMP280;25639;53.634;9.880;2023-04-01T01:13:15;151129.69;;;-5.02
39959;BMP280;25639;53.634;9.880;2023-04-01T01:16:23;151152.38;;;-4.93
39959;BMP280;25639;53.634;9.880;2023-04-01T01:19:05;151123.38;;;-5.05
39959;BMP280;25639;53.634;9.880;2023-04-01T01:21:55;151108.25;;;-5.11
39959;BMP280;25639;53.634;9.880;2023-04-01T01:24:51;151088.06;;;-5.19
39959;BMP280;25639;53.634;9.880;2023-04-01T01:27:21;151094.41;;;-5.17
39959;BMP280;25639;53.634;9.880;2023-04-01T01:30:18;151110.75;;;-5.10
39959;BMP280;25639;53.634;9.880;2023-04-01T01:35:55;151108.25;;;-5.11
39959;BMP280;25639;53.634;9.880;2023-04-01T01:38:24;151133.50;;;-5.01
39959;BMP280;25639;53.634;9.880;2023-04-01T01:40:52;151105.72;;;-5.12
39959;BMP280;25639;53.634;9.880;2023-04-01T01:43:25;151104.47;;;-5.12
39959;BMP280;25639;53.634;9.880;2023-04-01T01:45:56;151122.13;;;-5.05
39959;BMP280;25639;53.634;9.880;2023-04-01T01:48:24;151109.50;;;-5.10
39959;BMP280;25639;53.634;9.880;2023-04-01T01:50:51;151112.03;;;-5.09
39959;BMP280;25639;53.634;9.880;2023-04-01T01:53:17;151089.38;;;-5.19
39959;BMP280;25639;53.634;9.880;2023-04-01T01:55:45;151093.09;;;-5.17
39959;BMP280;25639;53.634;9.880;2023-04-01T02:00:51;151075.47;;;-5.24
39959;BMP280;25639;53.634;9.880;2023-04-01T02:03:20;151074.22;;;-5.25
39959;BMP280;25639;53.634;9.880;2023-04-01T02:05:47;151090.63;;;-5.18
39959;BMP280;25639;53.634;9.880;2023-04-01T02:08:20;151094.41;;;-5.17
39959;BMP280;25639;53.634;9.880;2023-04-01T02:10:55;151083.03;;;-5.21
39959;BMP280;25639;53.634;9.880;2023-04-01T02:13:29;151100.69;;;-5.14
39959;BMP280;25639;53.634;9.880;2023-04-01T02:15:59;151057.81;;;-5.31
39959;BMP280;25639;53.634;9.880;2023-04-01T02:18:27;151061.59;;;-5.30
39959;BMP280;25639;53.634;9.880;2023-04-01T02:20:55;151088.06;;;-5.19
39959;BMP280;25639;53.634;9.880;2023-04-01T02:23:21;151081.78;;;-5.22
39959;BMP280;25639;53.634;9.880;2023-04-01T02:25:47;151074.22;;;-5.25
39959;BMP280;25639;53.634;9.880;2023-04-01T02:28:13;151064.13;;;-5.29
39959;BMP280;25639;53.634;9.880;2023-04-01T02:30:42;151075.47;;;-5.24
39959;BMP280;25639;53.634;9.880;2023-04-01T02:33:09;151081.78;;;-5.22
39959;BMP280;25639;53.634;9.880;2023-04-01T02:35:37;151070.41;;;-5.26
39959;BMP280;25639;53.634;9.880;2023-04-01T02:38:03;151083.03;;;-5.21
39959;BMP280;25639;53.634;9.880;2023-04-01T02:40:29;151090.63;;;-5.18
39959;BMP280;25639;53.634;9.880;2023-04-01T02:42:55;151088.06;;;-5.19
39959;BMP280;25639;53.634;9.880;2023-04-01T02:45:20;151072.97;;;-5.25
39959;BMP280;25639;53.634;9.880;2023-04-01T02:47:45;151064.13;;;-5.29
39959;BMP280;25639;53.634;9.880;2023-04-01T02:50:11;151047.75;;;-5.36
39959;BMP280;25639;53.634;9.880;2023-04-01T02:52:36;151059.09;;;-5.31
39959;BMP280;25639;53.634;9.880;2023-04-01T02:55:02;151059.09;;;-5.31
39959;BMP280;25639;53.634;9.880;2023-04-01T02:57:27;151047.75;;;-5.36
39959;BMP280;25639;53.634;9.880;2023-04-01T02:59:54;151043.94;;;-5.37
39959;BMP280;25639;53.634;9.880;2023-04-01T03:02:19;151033.88;;;-5.41
39959;BMP280;25639;53.634;9.880;2023-04-01T03:04:44;151030.09;;;-5.43
39959;BMP280;25639;53.634;9.880;2023-04-01T03:07:10;151031.34;;;-5.42
39959;BMP280;25639;53.634;9.880;2023-04-01T03:09:37;151028.84;;;-5.43
39959;BMP280;25639;53.634;9.880;2023-04-01T03:12:02;151045.19;;;-5.37
39959;BMP280;25639;53.634;9.880;2023-04-01T03:14:28;151030.09;;;-5.43
39959;BMP280;25639;53.634;9.880;2023-04-01T03:16:53;151035.13;;;-5.41
39959;BMP280;25639;53.634;9.880;2023-04-01T03:19:18;151037.66;;;-5.40
39959;BMP280;25639;53.634;9.880;2023-04-01T03:21:43;151033.88;;;-5.41
39959;BMP280;25639;53.634;9.880;2023-04-01T03:24:09;151036.38;;;-5.40
39959;BMP280;25639;53.634;9.880;2023-04-01T03:26:34;151026.31;;;-5.44
39959;BMP280;25639;53.634;9.880;2023-04-01T03:29:00;151031.34;;;-5.42
39959;BMP280;25639;53.634;9.880;2023-04-01T03:31:25;151025.06;;;-5.45
39959;BMP280;25639;53.634;9.880;2023-04-01T03:33:50;151033.88;;;-5.41
39959;BMP280;25639;53.634;9.880;2023-04-01T03:36:16;151033.88;;;-5.41
39959;BMP280;25639;53.634;9.880;2023-04-01T03:38:42;151033.88;;;-5.41
39959;BMP280;25639;53.634;9.880;2023-04-01T03:41:12;151043.94;;;-5.37
39959;BMP280;25639;53.634;9.880;2023-04-01T03:43:37;151038.91;;;-5.39
39959;BMP280;25639;53.634;9.880;2023-04-01T03:46:02;151057.81;;;-5.31
39959;BMP280;25639;53.634;9.880;2023-04-01T03:48:28;151054.03;;;-5.33
39959;BMP280;25639;53.634;9.880;2023-04-01T03:50:53;151051.53;;;-5.34
39959;BMP280;25639;53.634;9.880;2023-04-01T03:53:18;151041.44;;;-5.38
39959;BMP280;25639;53.634;9.880;2023-04-01T03:55:44;151050.28;;;-5.34
39959;BMP280;25639;53.634;9.880;2023-04-01T03:58:09;151031.34;;;-5.42
39959;BMP280;25639;53.634;9.880;2023-04-01T04:00:35;151031.34;;;-5.42
39959;BMP280;25639;53.634;9.880;2023-04-01T04:03:01;151033.88;;;-5.41
39959;BMP280;25639;53.634;9.880;2023-04-01T04:05:27;151030.09;;;-5.43
39959;BMP280;25639;53.634;9.880;2023-04-01T04:07:53;151030.09;;;-5.43
39959;BMP280;25639;53.634;9.880;2023-04-01T04:10:19;151038.91;;;-5.39
39959;BMP280;25639;53.634;9.880;2023-04-01T04:12:44;151026.31;;;-5.44
39959;BMP280;25639;53.634;9.880;2023-04-01T04:15:10;151013.69;;;-5.49
39959;BMP280;25639;53.634;9.880;2023-04-01T04:17:35;151030.09;;;-5.43
39959;BMP280;25639;53.634;9.880;2023-04-01T04:20:01;151055.31;;;-5.32
39959;BMP280;25639;53.634;9.880;2023-04-01T04:22:26;151035.13;;;-5.41
39959;BMP280;25639;53.634;9.880;2023-04-01T04:24:51;151046.50;;;-5.36
39959;BMP280;25639;53.634;9.880;2023-04-01T04:27:17;151033.88;;;-5.41
39959;BMP280;25639;53.634;9.880;2023-04-01T04:29:42;151026.31;;;-5.44
39959;BMP280;25639;53.634;9.880;2023-04-01T04:32:07;151028.84;;;-5.43
39959;BMP280;25639;53.634;9.880;2023-04-01T04:34:33;150999.84;;;-5.55
39959;BMP280;25639;53.634;9.880;2023-04-01T04:36:58;151002.38;;;-5.54
39959;BMP280;25639;53.634;9.880;2023-04-01T04:39:23;150996.06;;;-5.57
39959;BMP280;25639;53.634;9.880;2023-04-01T04:41:49;150989.78;;;-5.59
39959;BMP280;25639;53.634;9.880;2023-04-01T04:44:14;151008.66;;;-5.51
39959;BMP280;25639;53.634;9.880;2023-04-01T04:46:39;150985.97;;;-5.61
39959;BMP280;25639;53.634;9.880;2023-04-01T04:49:05;150993.56;;;-5.58
39959;BMP280;25639;53.634;9.880;2023-04-01T04:51:30;151006.16;;;-5.52
39959;BMP280;25639;53.634;9.880;2023-04-01T04:53:59;151007.41;;;-5.52
39959;BMP280;25639;53.634;9.880;2023-04-01T04:56:24;150878.94;;;-6.04
39959;BMP280;25639;53.634;9.880;2023-04-01T04:58:51;150853.72;;;-6.15
39959;BMP280;25639;53.634;9.880;2023-04-01T05:01:17;150797.06;;;-6.38
39959;BMP280;25639;53.634;9.880;2023-04-01T05:03:43;150779.41;;;-6.45
39959;BMP280;25639;53.634;9.880;2023-04-01T05:06:09;150742.91;;;-6.60
39959;BMP280;25639;53.634;9.880;2023-04-01T05:08:36;150701.34;;;-6.77
39959;BMP280;25639;53.634;9.880;2023-04-01T05:11:02;150667.34;;;-6.91
39959;BMP280;25639;53.634;9.880;2023-04-01T05:13:28;150649.72;;;-6.98
39959;BMP280;25639;53.634;9.880;2023-04-01T05:15:54;150661.06;;;-6.93
39959;BMP280;25639;53.634;9.880;2023-04-01T05:18:20;150635.88;;;-7.03
39959;BMP280;25639;53.634;9.880;2023-04-01T05:20:50;150639.66;;;-7.02
39959;BMP280;25639;53.634;9.880;2023-04-01T05:23:16;150624.56;;;-7.08
39959;BMP280;25639;53.634;9.880;2023-04-01T05:25:41;150609.44;;;-7.14
39959;BMP280;25639;53.634;9.880;2023-04-01T05:28:07;150610.69;;;-7.14
39959;BMP280;25639;53.634;9.880;2023-04-01T05:30:32;150576.72;;;-7.28
39959;BMP280;25639;53.634;9.880;2023-04-01T05:32:57;150549.00;;;-7.39
39959;BMP280;25639;53.634;9.880;2023-04-01T05:35:23;150560.38;;;-7.34
39959;BMP280;25639;53.634;9.880;2023-04-01T05:37:49;150533.94;;;-7.45
39959;BMP280;25639;53.634;9.880;2023-04-01T05:40:14;150516.31;;;-7.52
39959;BMP280;25639;53.634;9.880;2023-04-01T05:42:39;150515.06;;;-7.53
39959;BMP280;25639;53.634;9.880;2023-04-01T05:45:05;150507.50;;;-7.56
39959;BMP280;25639;53.634;9.880;2023-04-01T05:47:31;150503.72;;;-7.57
39959;BMP280;25639;53.634;9.880;2023-04-01T05:49:56;150486.13;;;-7.64
39959;BMP280;25639;53.634;9.880;2023-04-01T05:52:21;150471.03;;;-7.71
39959;BMP280;25639;53.634;9.880;2023-04-01T05:54:47;150453.44;;;-7.78
39959;BMP280;25639;53.634;9.880;2023-04-01T05:57:12;150438.31;;;-7.84
39959;BMP280;25639;53.634;9.880;2023-04-01T05:59:37;150463.47;;;-7.74
39959;BMP280;25639;53.634;9.880;2023-04-01T06:02:03;150433.28;;;-7.86
39959;BMP280;25639;53.634;9.880;2023-04-01T06:04:32;150403.09;;;-7.98
39959;BMP280;25639;53.634;9.880;2023-04-01T06:06:59;150396.81;;;-8.01
39959;BMP280;25639;53.634;9.880;2023-04-01T06:09:30;150376.69;;;-8.09
39959;BMP280;25639;53.634;9.880;2023-04-01T06:17:57;150355.28;;;-8.18
39959;BMP280;25639;53.634;9.880;2023-04-01T06:20:42;150382.94;;;-8.07
39959;BMP280;25639;53.634;9.880;2023-04-01T06:32:11;150341.47;;;-8.24
39959;BMP280;25639;53.634;9.880;2023-04-01T06:35:22;150315.06;;;-8.34
39959;BMP280;25639;53.634;9.880;2023-04-01T06:38:10;150289.94;;;-8.45
39959;BMP280;25639;53.634;9.880;2023-04-01T06:43:21;150274.88;;;-8.51
39959;BMP280;25639;53.634;9.880;2023-04-01T06:54:36;150287.47;;;-8.46
39959;BMP280;25639;53.634;9.880;2023-04-01T06:59:54;150266.09;;;-8.54
39959;BMP280;25639;53.634;9.880;2023-04-01T07:02:29;150273.59;;;-8.51
39959;BMP280;25639;53.634;9.880;2023-04-01T07:04:59;150279.91;;;-8.49
39959;BMP280;25639;53.634;9.880;2023-04-01T07:07:43;150276.13;;;-8.50
39959;BMP280;25639;53.634;9.880;2023-04-01T07:10:17;150218.31;;;-8.74
39959;BMP280;25639;53.634;9.880;2023-04-01T07:12:52;150217.06;;;-8.74
39959;BMP280;25639;53.634;9.880;2023-04-01T07:15:25;150227.09;;;-8.70
39959;BMP280;25639;53.634;9.880;2023-04-01T07:18:00;150235.91;;;-8.67
39959;BMP280;25639;53.634;9.880;2023-04-01T07:20:30;150200.72;;;-8.81
39959;BMP280;25639;53.634;9.880;2023-04-01T07:22:59;150206.97;;;-8.78
39959;BMP280;25639;53.634;9.880;2023-04-01T07:25:35;150193.16;;;-8.84
39959;BMP280;25639;53.634;9.880;2023-04-01T07:28:05;150205.72;;;-8.79
39959;BMP280;25639;53.634;9.880;2023-04-01T07:33:20;150229.59;;;-8.69
39959;BMP280;25639;53.634;9.880;2023-04-01T07:35:58;150183.13;;;-8.88
39959;BMP280;25639;53.634;9.880;2023-04-01T07:41:26;150190.66;;;-8.85
39959;BMP280;25639;53.634;9.880;2023-04-01T07:44:13;150191.91;;;-8.85
39959;BMP280;25639;53.634;9.880;2023-04-01T07:47:07;150232.13;;;-8.68
39959;BMP280;25639;53.634;9.880;2023-04-01T07:52:29;150209.50;;;-8.77
39959;BMP280;25639;53.634;9.880;2023-04-01T08:00:35;150136.59;;;-9.07
39959;BMP280;25639;53.634;9.880;2023-04-01T08:05:53;150144.16;;;-9.04
39959;BMP280;25639;53.634;9.880;2023-04-01T08:08:33;150169.28;;;-8.94
39959;BMP280;25639;53.634;9.880;2023-04-01T08:14:15;150169.28;;;-8.94
39959;BMP280;25639;53.634;9.880;2023-04-01T08:19:43;150145.38;;;-9.04
39959;BMP280;25639;53.634;9.880;2023-04-01T08:22:17;150166.75;;;-8.95
39959;BMP280;25639;53.634;9.880;2023-04-01T08:24:46;150134.09;;;-9.08
39959;BMP280;25639;53.634;9.880;2023-04-01T08:27:19;150139.13;;;-9.06
39959;BMP280;25639;53.634;9.880;2023-04-01T08:29:59;150126.56;;;-9.11
39959;BMP280;25639;53.634;9.880;2023-04-01T08:32:39;150120.25;;;-9.14
39959;BMP280;25639;53.634;9.880;2023-04-01T08:38:17;150171.78;;;-8.93
39959;BMP280;25639;53.634;9.880;2023-04-01T08:41:01;150155.44;;;-8.99
39959;BMP280;25639;53.634;9.880;2023-04-01T08:44:29;150194.41;;;-8.84
39959;BMP280;25639;53.634;9.880;2023-04-01T08:50:12;150184.34;;;-8.88
39959;BMP280;25639;53.634;9.880;2023-04-01T08:52:53;150205.72;;;-8.79
39959;BMP280;25639;53.634;9.880;2023-04-01T08:55:31;150218.31;;;-8.74
39959;BMP280;25639;53.634;9.880;2023-04-01T08:58:35;150176.81;;;-8.91
39959;BMP280;25639;53.634;9.880;2023-04-01T09:01:25;150154.19;;;-9.00
39959;BMP280;25639;53.634;9.880;2023-04-01T09:06:37;150155.44;;;-8.99
39959;BMP280;25639;53.634;9.880;2023-04-01T09:17:28;150154.19;;;-9.00
39959;BMP280;25639;53.634;9.880;2023-04-01T09:20:17;150185.59;;;-8.87
39959;BMP280;25639;53.634;9.880;2023-04-01T09:36:47;150200.72;;;-8.81
39959;BMP280;25639;53.634;9.880;2023-04-01T09:44:48;150194.41;;;-8.84
39959;BMP280;25639;53.634;9.880;2023-04-01T09:47:42;150218.31;;;-8.74
39959;BMP280;25639;53.634;9.880;2023-04-01T09:50:20;150190.66;;;-8.85
39959;BMP280;25639;53.634;9.880;2023-04-01T09:53:07;150162.97;;;-8.96
39959;BMP280;25639;53.634;9.880;2023-04-01T10:01:14;150208.25;;;-8.78
39959;BMP280;25639;53.634;9.880;2023-04-01T10:04:05;150183.13;;;-8.88
39959;BMP280;25639;53.634;9.880;2023-04-01T10:18:26;150218.31;;;-8.74
39959;BMP280;25639;53.634;9.880;2023-04-01T10:21:07;150250.97;;;-8.60
39959;BMP280;25639;53.634;9.880;2023-04-01T10:26:37;150266.09;;;-8.54
39959;BMP280;25639;53.634;9.880;2023-04-01T10:32:21;150281.16;;;-8.48
39959;BMP280;25639;53.634;9.880;2023-04-01T10:51:17;150338.94;;;-8.25
39959;BMP280;25639;53.634;9.880;2023-04-01T11:02:17;150351.50;;;-8.19
39959;BMP280;25639;53.634;9.880;2023-04-01T11:14:23;150349.03;;;-8.20
39959;BMP280;25639;53.634;9.880;2023-04-01T11:20:31;150361.59;;;-8.15
39959;BMP280;25639;53.634;9.880;2023-04-01T11:23:25;150394.28;;;-8.02
39959;BMP280;25639;53.634;9.880;2023-04-01T11:26:04;150432.03;;;-7.87
39959;BMP280;25639;53.634;9.880;2023-04-01T11:31:34;150323.88;;;-8.31
39959;BMP280;25639;53.634;9.880;2023-04-01T11:34:20;150272.34;;;-8.52
39959;BMP280;25639;53.634;9.880;2023-04-01T11:42:07;150271.09;;;-8.52
39959;BMP280;25639;53.634;9.880;2023-04-01T11:44:40;150254.75;;;-8.59
39959;BMP280;25639;53.634;9.880;2023-04-01T11:49:52;150213.28;;;-8.76
39959;BMP280;25639;53.634;9.880;2023-04-01T11:58:04;150155.44;;;-8.99
39959;BMP280;25639;53.634;9.880;2023-04-01T12:03:37;150234.66;;;-8.67
39959;BMP280;25639;53.634;9.880;2023-04-01T12:06:27;150272.34;;;-8.52
39959;BMP280;25639;53.634;9.880;2023-04-01T12:09:21;150174.31;;;-8.92
39959;BMP280;25639;53.634;9.880;2023-04-01T12:11:52;150219.56;;;-8.73
39959;BMP280;25639;53.634;9.880;2023-04-01T12:14:33;150225.88;;;-8.71
39959;BMP280;25639;53.634;9.880;2023-04-01T12:23:16;150151.69;;;-9.01
39959;BMP280;25639;53.634;9.880;2023-04-01T12:28:59;150146.63;;;-9.03
39959;BMP280;25639;53.634;9.880;2023-04-01T12:31:53;150126.56;;;-9.11
39959;BMP280;25639;53.634;9.880;2023-04-01T12:45:16;150124.03;;;-9.12
39959;BMP280;25639;53.634;9.880;2023-04-01T12:48:08;150124.03;;;-9.12
39959;BMP280;25639;53.634;9.880;2023-04-01T12:55:50;150107.72;;;-9.19
39959;BMP280;25639;53.634;9.880;2023-04-01T13:01:23;150127.81;;;-9.11
39959;BMP280;25639;53.634;9.880;2023-04-01T13:04:23;150120.25;;;-9.14
39959;BMP280;25639;53.634;9.880;2023-04-01T13:07:10;150132.81;;;-9.09
39959;BMP280;25639;53.634;9.880;2023-04-01T13:09:56;150068.78;;;-9.35
39959;BMP280;25639;53.634;9.880;2023-04-01T13:15:22;150058.69;;;-9.39
39959;BMP280;25639;53.634;9.880;2023-04-01T13:17:58;150058.69;;;-9.39
39959;BMP280;25639;53.634;9.880;2023-04-01T13:23:04;150117.75;;;-9.15
39959;BMP280;25639;53.634;9.880;2023-04-01T13:28:30;150075.03;;;-9.32
39959;BMP280;25639;53.634;9.880;2023-04-01T13:36:57;150062.47;;;-9.37
39959;BMP280;25639;53.634;9.880;2023-04-01T13:42:18;149993.34;;;-9.66
39959;BMP280;25639;53.634;9.880;2023-04-01T13:44:51;150005.94;;;-9.61
39959;BMP280;25639;53.634;9.880;2023-04-01T13:47:49;150033.59;;;-9.49
39959;BMP280;25639;53.634;9.880;2023-04-01T13:57:20;150026.03;;;-9.52
39959;BMP280;25639;53.634;9.880;2023-04-01T14:10:50;150053.66;;;-9.41
39959;BMP280;25639;53.634;9.880;2023-04-01T14:13:41;150091.38;;;-9.26
39959;BMP280;25639;53.634;9.880;2023-04-01T14:22:36;150059.97;;;-9.38
39959;BMP280;25639;53.634;9.880;2023-04-01T14:28:02;150031.06;;;-9.50
39959;BMP280;25639;53.634;9.880;2023-04-01T14:33:33;150029.81;;;-9.51
39959;BMP280;25639;53.634;9.880;2023-04-01T14:36:23;150023.50;;;-9.53
39959;BMP280;25639;53.634;9.880;2023-04-01T14:39:22;150018.50;;;-9.55
39959;BMP280;25639;53.634;9.880;2023-04-01T14:47:54;150014.72;;;-9.57
39959;BMP280;25639;53.634;9.880;2023-04-01T14:50:24;150048.66;;;-9.43
39959;BMP280;25639;53.634;9.880;2023-04-01T14:58:12;150000.91;;;-9.63
39959;BMP280;25639;53.634;9.880;2023-04-01T15:03:32;149983.31;;;-9.70
39959;BMP280;25639;53.634;9.880;2023-04-01T15:09:09;149975.78;;;-9.73
39959;BMP280;25639;53.634;9.880;2023-04-01T15:12:03;149914.25;;;-9.98
39959;BMP280;25639;53.634;9.880;2023-04-01T15:14:50;149956.94;;;-9.81
39959;BMP280;25639;53.634;9.880;2023-04-01T15:17:40;149935.59;;;-9.89
39959;BMP280;25639;53.634;9.880;2023-04-01T15:20:36;149934.34;;;-9.90
39959;BMP280;25639;53.634;9.880;2023-04-01T15:23:13;149956.94;;;-9.81
39959;BMP280;25639;53.634;9.880;2023-04-01T15:25:58;149968.28;;;-9.76
39959;BMP280;25639;53.634;9.880;2023-04-01T15:31:40;149894.19;;;-10.06
39959;BMP280;25639;53.634;9.880;2023-04-01T15:34:32;149896.66;;;-10.05
39959;BMP280;25639;53.634;9.880;2023-04-01T15:37:22;149891.66;;;-10.07
39959;BMP280;25639;53.634;9.880;2023-04-01T15:42:28;149905.44;;;-10.02
39959;BMP280;25639;53.634;9.880;2023-04-01T15:48:22;149920.56;;;-9.95
39959;BMP280;25639;53.634;9.880;2023-04-01T15:50:54;149892.88;;;-10.07
39959;BMP280;25639;53.634;9.880;2023-04-01T15:53:44;149931.81;;;-9.91
39959;BMP280;25639;53.634;9.880;2023-04-01T15:56:36;149914.25;;;-9.98
39959;BMP280;25639;53.634;9.880;2023-04-01T15:59:18;149899.19;;;-10.04
39959;BMP280;25639;53.634;9.880;2023-04-01T16:04:43;149904.22;;;-10.02
39959;BMP280;25639;53.634;9.880;2023-04-01T16:16:17;149900.44;;;-10.04
39959;BMP280;25639;53.634;9.880;2023-04-01T16:19:12;149870.31;;;-10.16
39959;BMP280;25639;53.634;9.880;2023-04-01T16:21:59;149859.03;;;-10.21
39959;BMP280;25639;53.634;9.880;2023-04-01T16:29:48;149851.47;;;-10.24
39959;BMP280;25639;53.634;9.880;2023-04-01T16:32:37;149838.91;;;-10.29
39959;BMP280;25639;53.634;9.880;2023-04-01T16:35:23;149797.56;;;-10.46
39959;BMP280;25639;53.634;9.880;2023-04-01T16:40:49;149828.94;;;-10.33
39959;BMP280;25639;53.634;9.880;2023-04-01T16:45:54;149803.81;;;-10.43
39959;BMP280;25639;53.634;9.880;2023-04-01T16:48:28;149802.59;;;-10.44
39959;BMP280;25639;53.634;9.880;2023-04-01T16:51:00;149827.69;;;-10.33
39959;BMP280;25639;53.634;9.880;2023-04-01T16:53:40;149803.81;;;-10.43
39959;BMP280;25639;53.634;9.880;2023-04-01T16:56:11;149803.81;;;-10.43
39959;BMP280;25639;53.634;9.880;2023-04-01T16:58:59;149791.28;;;-10.48
39959;BMP280;25639;53.634;9.880;2023-04-01T17:01:32;149769.94;;;-10.57
39959;BMP280;25639;53.634;9.880;2023-04-01T17:04:10;149781.25;;;-10.52
39959;BMP280;25639;53.634;9.880;2023-04-01T17:06:50;149763.66;;;-10.60
39959;BMP280;25639;53.634;9.880;2023-04-01T17:15:26;149732.31;;;-10.72
39959;BMP280;25639;53.634;9.880;2023-04-01T17:18:10;149733.53;;;-10.72
39959;BMP280;25639;53.634;9.880;2023-04-01T17:21:09;149739.81;;;-10.69
39959;BMP280;25639;53.634;9.880;2023-04-01T17:23:47;149718.50;;;-10.78
39959;BMP280;25639;53.634;9.880;2023-04-01T17:26:44;149695.88;;;-10.87
39959;BMP280;25639;53.634;9.880;2023-04-01T17:30:08;149710.97;;;-10.81
39959;BMP280;25639;53.634;9.880;2023-04-01T17:35:02;149707.19;;;-10.83
39959;BMP280;25639;53.634;9.880;2023-04-01T17:38:19;149699.66;;;-10.86
39959;BMP280;25639;53.634;9.880;2023-04-01T17:43:30;149682.09;;;-10.93
39959;BMP280;25639;53.634;9.880;2023-04-01T17:45:57;149672.06;;;-10.97
39959;BMP280;25639;53.634;9.880;2023-04-01T17:49:39;149704.66;;;-10.84
39959;BMP280;25639;53.634;9.880;2023-04-01T17:51:38;149685.84;;;-10.91
39959;BMP280;25639;53.634;9.880;2023-04-01T17:54:24;149674.59;;;-10.96
39959;BMP280;25639;53.634;9.880;2023-04-01T18:02:45;149688.38;;;-10.90
39959;BMP280;25639;53.634;9.880;2023-04-01T18:08:11;149675.84;;;-10.96
39959;BMP280;25639;53.634;9.880;2023-04-01T18:10:51;149692.16;;;-10.89
39959;BMP280;25639;53.634;9.880;2023-04-01T18:13:42;149651.97;;;-11.05
39959;BMP280;25639;53.634;9.880;2023-04-01T18:22:08;149616.84;;;-11.20
39959;BMP280;25639;53.634;9.880;2023-04-01T18:25:04;149609.34;;;-11.23
39959;BMP280;25639;53.634;9.880;2023-04-01T18:27:40;149611.84;;;-11.22
39959;BMP280;25639;53.634;9.880;2023-04-01T18:30:21;149600.59;;;-11.26
39959;BMP280;25639;53.634;9.880;2023-04-01T18:33:09;149615.63;;;-11.20
39959;BMP280;25639;53.634;9.880;2023-04-01T18:35:51;149601.81;;;-11.26
39959;BMP280;25639;53.634;9.880;2023-04-01T18:38:28;149600.59;;;-11.26
39959;BMP280;25639;53.634;9.880;2023-04-01T18:41:14;149571.72;;;-11.38
39959;BMP280;25639;53.634;9.880;2023-04-01T18:44:00;149555.41;;;-11.45
39959;BMP280;25639;53.634;9.880;2023-04-01T18:46:36;149571.72;;;-11.38
39959;BMP280;25639;53.634;9.880;2023-04-01T18:49:21;149567.94;;;-11.40
39959;BMP280;25639;53.634;9.880;2023-04-01T18:52:13;149549.16;;;-11.47
39959;BMP280;25639;53.634;9.880;2023-04-01T19:00:14;149545.38;;;-11.49
39959;BMP280;25639;53.634;9.880;2023-04-01T19:02:47;149547.91;;;-11.48
39959;BMP280;25639;53.634;9.880;2023-04-01T19:05:38;149547.91;;;-11.48
39959;BMP280;25639;53.634;9.880;2023-04-01T19:08:32;149545.38;;;-11.49
39959;BMP280;25639;53.634;9.880;2023-04-01T19:11:09;149510.28;;;-11.63
39959;BMP280;25639;53.634;9.880;2023-04-01T19:13:47;149501.50;;;-11.67
39959;BMP280;25639;53.634;9.880;2023-04-01T19:16:40;149510.28;;;-11.63
39959;BMP280;25639;53.634;9.880;2023-04-01T19:21:58;149521.53;;;-11.59
39959;BMP280;25639;53.634;9.880;2023-04-01T19:27:34;149491.47;;;-11.71
39959;BMP280;25639;53.634;9.880;2023-04-01T19:33:19;149501.50;;;-11.67
39959;BMP280;25639;53.634;9.880;2023-04-01T19:36:15;149463.84;;;-11.82
39959;BMP280;25639;53.634;9.880;2023-04-01T19:39:05;149447.59;;;-11.89
39959;BMP280;25639;53.634;9.880;2023-04-01T19:41:37;149460.09;;;-11.84
39959;BMP280;25639;53.634;9.880;2023-04-01T19:47:04;149470.16;;;-11.80
39959;BMP280;25639;53.634;9.880;2023-04-01T19:49:52;149473.91;;;-11.78
39959;BMP280;25639;53.634;9.880;2023-04-01T19:52:33;149460.09;;;-11.84
39959;BMP280;25639;53.634;9.880;2023-04-01T19:55:18;149471.41;;;-11.79
39959;BMP280;25639;53.634;9.880;2023-04-01T19:58:11;149465.16;;;-11.82
39959;BMP280;25639;53.634;9.880;2023-04-01T20:00:59;149461.38;;;-11.83
39959;BMP280;25639;53.634;9.880;2023-04-01T20:09:08;149430.09;;;-11.96
39959;BMP280;25639;53.634;9.880;2023-04-01T20:14:37;149396.25;;;-12.10
39959;BMP280;25639;53.634;9.880;2023-04-01T20:19:53;149359.84;;;-12.25
39959;BMP280;25639;53.634;9.880;2023-04-01T20:28:02;149322.28;;;-12.40
39959;BMP280;25639;53.634;9.880;2023-04-01T20:41:42;149269.69;;;-12.62
39959;BMP280;25639;53.634;9.880;2023-04-01T20:44:20;149247.13;;;-12.71
39959;BMP280;25639;53.634;9.880;2023-04-01T20:47:23;149254.63;;;-12.68
39959;BMP280;25639;53.634;9.880;2023-04-01T20:50:20;149232.06;;;-12.77
39959;BMP280;25639;53.634;9.880;2023-04-01T20:53:15;149217.06;;;-12.83